Terminal Aerodrome Forecast
Issued by NWS

Home | Current Version | Previous Version | Text Only | Print | Product List | Glossary On
Versions: 1 2 3 4 5 6 7 8 9 10 11 12 13 14 15 16 17 18 19
000
FTUS41 KGYX 252148 AAB
TAFHIE
TAF AMD
KHIE 252148Z 2522/2618 16012G20KT P6SM OVC050
     FM260300 25005KT 1/2SM FG BKN015
     FM261100 32005KT P6SM FEW250=

USA.gov is the U.S. government's official web portal to all federal, state and local government web resources and services.